Time;durP1;ratioP1;P1;durP2;ratioP2;P2;SDS_P1;SDS_P2;PMS_P1;PMS_P2;Temp;Humidity;BMP_temperature;BMP_pressure;BME280_temperature;BME280_humidity;BME280_pressure;Samples;Min_cycle;Max_cycle;Signal;HPM_P1;HPM_P2
2022/05/07 00:01:32;;;;;;;44.20;40.20;;;;;;;12.45;84.78;98451.08;104875;1288;22934;-81
2022/05/07 00:04:00;;;;;;;43.70;39.30;;;;;;;12.42;84.57;98451.41;104759;1288;25546;-81
2022/05/07 00:06:28;;;;;;;36.80;33.30;;;;;;;12.34;84.37;98452.42;104682;1288;22563;-81
2022/05/07 00:08:56;;;;;;;38.30;34.70;;;;;;;12.25;84.39;98450.04;104710;1288;22640;-82
2022/05/07 00:11:24;;;;;;;34.60;31.40;;;;;;;12.16;84.52;98455.68;104685;1288;24451;-81
2022/05/07 00:13:52;;;;;;;37.80;34.10;;;;;;;12.12;84.57;98455.54;104688;1288;22572;-81
2022/05/07 00:19:06;;;;;;;31.70;28.50;;;;;;;12.13;84.70;98456.60;104546;1288;24442;-81
2022/05/07 00:21:34;;;;;;;30.90;27.90;;;;;;;12.14;84.78;98453.05;104685;1288;22638;-81
2022/05/07 00:24:03;;;;;;;31.60;28.80;;;;;;;12.16;84.80;98454.45;104902;1288;22732;-81
2022/05/07 00:26:31;;;;;;;31.50;28.60;;;;;;;12.17;84.85;98451.56;104985;1288;24370;-81
2022/05/07 00:28:58;;;;;;;30.70;27.90;;;;;;;12.22;85.08;98455.15;104979;1287;22559;-81
2022/05/07 00:31:26;;;;;;;42.00;38.10;;;;;;;12.28;84.88;98453.11;104735;1288;24448;-81
2022/05/07 00:33:55;;;;;;;25.90;23.50;;;;;;;12.31;84.54;98454.91;104820;1288;25271;-81
2022/05/07 00:36:30;;;;;;;;;;;;;;;12.29;84.27;98453.69;104848;1288;22546;-80
2022/05/07 00:38:58;;;;;;;25.90;23.50;;;;;;;12.23;84.08;98451.89;104655;1290;22597;-81
2022/05/07 00:41:25;;;;;;;28.40;25.90;;;;;;;12.18;84.22;98446.30;104666;1289;24276;-81
2022/05/07 00:43:53;;;;;;;26.00;23.60;;;;;;;12.15;84.20;98443.66;104696;1288;23256;-81
2022/05/07 00:46:26;;;;;;;25.70;23.10;;;;;;;12.12;84.24;98440.78;104631;1288;25349;-80
2022/05/07 00:48:57;;;;;;;26.80;24.00;;;;;;;12.14;84.14;98442.05;104720;1291;22774;-81
2022/05/07 00:51:34;;;;;;;28.10;25.10;;;;;;;12.15;84.09;98441.66;104669;1288;22639;-81
2022/05/07 00:54:06;;;;;;;29.90;27.20;;;;;;;12.16;84.19;98440.40;104669;1289;25393;-81
2022/05/07 00:56:36;;;;;;;27.50;24.70;;;;;;;12.18;84.44;98438.69;104844;1289;22638;-81
2022/05/07 00:59:06;;;;;;;40.60;37.10;;;;;;;12.22;84.45;98440.30;104845;1288;22713;-81
2022/05/07 01:01:34;;;;;;;33.50;30.30;;;;;;;12.23;84.16;98442.48;104807;1288;22630;-81
2022/05/07 01:04:02;;;;;;;33.50;30.30;;;;;;;12.28;84.46;98444.36;104720;1288;24457;-81
2022/05/07 01:06:34;;;;;;;36.70;30.40;;;;;;;12.35;84.49;98441.43;104850;1288;22609;-81
2022/05/07 01:09:04;;;;;;;30.30;27.50;;;;;;;12.39;84.46;98440.92;104840;1288;22835;-81
2022/05/07 01:11:33;;;;;;;39.30;35.80;;;;;;;12.39;84.07;98444.67;104755;1289;22745;-83
2022/05/07 01:14:02;;;;;;;48.50;44.10;;;;;;;12.37;84.07;98442.03;105060;1288;26651;-81
2022/05/07 01:16:31;;;;;;;52.00;47.30;;;;;;;12.38;83.91;98442.30;104745;1288;22641;-81
2022/05/07 01:18:59;;;;;;;46.60;42.30;;;;;;;12.41;83.83;98445.80;104723;1288;23718;-81
2022/05/07 01:21:28;;;;;;;54.90;49.80;;;;;;;12.42;83.88;98446.34;104776;1288;25321;-81
2022/05/07 01:23:58;;;;;;;53.20;48.40;;;;;;;12.44;83.90;98444.99;104738;1289;25380;-81
2022/05/07 01:26:30;;;;;;;86.00;78.30;;;;;;;12.47;84.19;98446.94;104853;1288;22561;-81
2022/05/07 01:29:03;;;;;;;85.10;77.50;;;;;;;12.46;83.64;98445.02;104831;1288;22739;-82
2022/05/07 01:31:34;;;;;;;83.00;75.10;;;;;;;12.46;83.89;98440.48;104713;1288;24320;-82
2022/05/07 01:34:02;;;;;;;56.90;51.30;;;;;;;12.49;83.98;98440.15;104839;1288;25312;-81
2022/05/07 01:36:32;;;;;;;52.60;47.40;;;;;;;12.54;84.15;98440.55;104854;1288;22570;-81
2022/05/07 01:39:03;;;;;;;44.90;40.60;;;;;;;12.55;84.14;98437.05;104856;1288;22575;-81
2022/05/07 01:41:31;;;;;;;44.80;40.70;;;;;;;12.61;84.06;98440.15;104732;1289;22673;-82
2022/05/07 01:43:59;;;;;;;35.80;32.30;;;;;;;12.63;83.92;98440.00;104844;1288;22672;-81
2022/05/07 01:49:15;;;;;;;40.30;36.50;;;;;;;12.58;83.60;98437.89;104659;1288;22774;-80
2022/05/07 01:51:43;;;;;;;33.80;30.60;;;;;;;12.55;83.73;98438.59;104706;1288;22711;-80
2022/05/07 01:54:11;;;;;;;36.70;32.90;;;;;;;12.52;83.80;98440.88;104754;1290;22566;-81
2022/05/07 01:56:40;;;;;;;41.30;37.30;;;;;;;12.45;83.40;98443.15;104770;1288;22569;-81
2022/05/07 01:59:08;;;;;;;45.30;40.70;;;;;;;12.41;83.31;98438.61;104807;1288;22630;-80
2022/05/07 02:01:36;;;;;;;47.10;42.80;;;;;;;12.40;83.34;98438.64;104827;1288;24271;-81
2022/05/07 02:04:04;;;;;;;45.20;40.80;;;;;;;12.41;83.49;98438.77;104718;1290;22641;-82
2022/05/07 02:06:32;;;;;;;44.00;39.70;;;;;;;12.39;83.60;98435.48;104787;1288;24452;-81
2022/05/07 02:09:01;;;;;;;45.90;41.80;;;;;;;12.35;83.46;98438.40;104866;1288;22572;-80
2022/05/07 02:11:31;;;;;;;50.30;45.70;;;;;;;12.29;83.34;98440.08;104766;1288;25608;-81
2022/05/07 02:13:59;;;;;;;35.60;32.10;;;;;;;12.26;83.48;98440.34;104843;1288;22561;-81
2022/05/07 02:16:27;;;;;;;40.20;36.40;;;;;;;12.25;83.48;98439.27;104802;1289;22594;-80
2022/05/07 02:18:55;;;;;;;34.50;31.40;;;;;;;12.25;83.70;98441.27;104866;1288;22675;-81
2022/05/07 02:21:23;;;;;;;32.80;29.80;;;;;;;12.27;84.01;98438.38;104828;1288;22820;-79
2022/05/07 02:23:51;;;;;;;27.60;25.00;;;;;;;12.28;84.08;98435.70;104776;1288;24238;-79
2022/05/07 02:26:19;;;;;;;21.90;19.90;;;;;;;12.30;84.04;98435.41;104773;1288;25391;-82
2022/05/07 02:28:47;;;;;;;28.00;25.30;;;;;;;12.26;83.59;98434.23;104868;1289;22557;-82
2022/05/07 02:31:16;;;;;;;35.10;31.70;;;;;;;12.22;83.28;98437.15;104931;1288;25260;-80
2022/05/07 02:33:45;;;;;;;35.50;32.20;;;;;;;12.16;83.52;98436.08;105212;1289;22611;-82
2022/05/07 02:36:14;;;;;;;37.70;34.30;;;;;;;12.12;83.53;98435.21;105428;1288;22582;-80
2022/05/07 02:38:42;;;;;;;31.90;28.70;;;;;;;12.11;83.96;98438.54;105356;1288;22597;-80
2022/05/07 02:44:02;;;;;;;30.00;27.10;;;;;;;12.07;83.47;98436.86;104862;1288;22551;-84
2022/05/07 02:46:30;;;;;;;26.00;23.50;;;;;;;12.06;83.77;98440.83;104998;1288;22657;-83
2022/05/07 02:48:59;;;;;;;25.70;23.20;;;;;;;12.09;83.98;98441.05;105037;1288;22556;-82
2022/05/07 02:51:27;;;;;;;24.80;22.40;;;;;;;12.09;83.94;98442.23;104986;1288;22575;-78
2022/05/07 02:53:56;;;;;;;19.50;17.50;;;;;;;12.07;83.80;98443.48;104902;1289;25566;-81
2022/05/07 02:56:24;;;;;;;17.00;15.30;;;;;;;12.06;83.94;98442.61;104837;1289;24099;-82
2022/05/07 02:58:51;;;;;;;16.40;14.60;;;;;;;12.07;83.63;98446.73;104855;1288;23980;-81
2022/05/07 03:01:20;;;;;;;21.70;19.00;;;;;;;12.08;83.68;98448.80;104776;1289;22569;-81
2022/05/07 03:03:49;;;;;;;28.10;25.20;;;;;;;12.02;83.39;98447.37;104925;1288;22579;-81
2022/05/07 03:06:17;;;;;;;22.20;20.00;;;;;;;11.98;83.56;98446.77;104818;1289;24431;-81
2022/05/07 03:08:45;;;;;;;18.20;16.40;;;;;;;11.98;83.81;98446.14;104854;1288;22642;-81
2022/05/07 03:11:14;;;;;;;20.30;18.20;;;;;;;11.98;83.44;98451.06;104811;1288;23026;-82
2022/05/07 03:13:42;;;;;;;27.40;25.00;;;;;;;11.96;83.18;98451.73;104814;1289;22604;-81
2022/05/07 03:16:10;;;;;;;21.50;14.70;;;;;;;11.91;83.10;98452.73;104814;1289;22648;-80
2022/05/07 03:18:38;;;;;;;18.20;15.20;;;;;;;11.84;82.98;98453.84;104831;1288;22783;-81
2022/05/07 03:21:06;;;;;;;17.20;15.50;;;;;;;11.78;83.04;98454.89;104843;1288;24276;-81
2022/05/07 03:23:34;;;;;;;16.10;14.40;;;;;;;11.72;82.94;98449.09;104817;1288;25024;-80
2022/05/07 03:26:06;;;;;;;16.40;14.70;;;;;;;11.65;82.76;98452.27;104810;1289;22737;-81
2022/05/07 03:28:33;;;;;;;23.50;21.20;;;;;;;11.57;82.73;98448.39;104809;1288;24443;-81
2022/05/07 03:31:02;;;;;;;20.60;18.50;;;;;;;11.54;82.69;98453.83;104814;1288;22567;-81
2022/05/07 03:33:30;;;;;;;27.10;23.30;;;;;;;11.48;82.78;98455.59;104806;1289;22572;-81
2022/05/07 03:35:59;;;;;;;36.10;31.30;;;;;;;11.44;82.84;98457.27;104791;1288;22610;-82
2022/05/07 03:38:27;;;;;;;43.50;39.00;;;;;;;11.37;82.77;98457.13;104810;1290;24319;-81
2022/05/07 03:41:09;;;;;;;26.50;23.80;;;;;;;11.35;82.85;98453.65;104841;1288;22647;-82
2022/05/07 03:43:38;;;;;;;28.80;25.60;;;;;;;11.34;83.03;98455.83;104822;1288;23244;-80
2022/05/07 03:46:07;;;;;;;32.20;28.20;;;;;;;11.32;82.99;98459.20;104801;1289;22748;-81
2022/05/07 03:48:36;;;;;;;42.10;37.40;;;;;;;11.29;82.98;98457.29;104820;1289;22583;-81
2022/05/07 03:51:04;;;;;;;40.10;34.00;;;;;;;11.25;82.93;98455.77;104845;1288;22586;-81
2022/05/07 03:53:32;;;;;;;33.00;28.60;;;;;;;11.25;82.71;98456.91;104841;1290;25336;-82
2022/05/07 03:56:08;;;;;;;27.10;24.30;;;;;;;11.22;82.62;98462.13;104883;1288;25379;-82
2022/05/07 03:58:38;;;;;;;24.50;22.00;;;;;;;11.18;82.81;98462.83;104875;1288;22784;-81
2022/05/07 04:01:15;;;;;;;22.50;18.60;;;;;;;11.18;83.07;98465.68;104988;1288;22572;-80
2022/05/07 04:03:43;;;;;;;19.00;17.00;;;;;;;11.19;82.93;98466.91;104938;1288;22580;-80
2022/05/07 04:06:12;;;;;;;19.10;17.20;;;;;;;11.19;82.87;98469.92;104794;1288;26700;-81
2022/05/07 04:08:40;;;;;;;32.00;29.00;;;;;;;11.21;82.86;98465.88;107416;1288;22651;-81
2022/05/07 04:11:08;;;;;;;25.50;23.10;;;;;;;11.24;82.96;98460.70;108259;1288;22629;-81
2022/05/07 04:13:36;;;;;;;20.40;17.60;;;;;;;11.27;82.89;98461.64;106558;1290;23950;-81
2022/05/07 04:16:05;;;;;;;21.00;18.90;;;;;;;11.29;83.01;98463.23;105494;1288;25395;-80
2022/05/07 04:18:38;;;;;;;21.50;19.30;;;;;;;11.34;82.93;98465.33;105528;1289;22873;-80
2022/05/07 04:21:10;;;;;;;19.00;17.00;;;;;;;11.42;83.11;98461.98;105367;1288;22580;-81
2022/05/07 04:23:38;;;;;;;20.60;18.10;;;;;;;11.51;83.11;98464.45;105052;1290;24824;-81
2022/05/07 04:26:06;;;;;;;20.20;17.80;;;;;;;11.58;83.06;98459.05;104873;1289;24455;-81
2022/05/07 04:28:38;;;;;;;21.60;18.30;;;;;;;11.65;83.07;98463.23;104893;1288;22627;-81
2022/05/07 04:31:07;;;;;;;24.30;22.00;;;;;;;11.72;83.01;98461.95;105042;1289;25367;-81
2022/05/07 04:33:35;;;;;;;16.10;14.40;;;;;;;11.80;82.90;98467.45;105057;1289;25520;-80
2022/05/07 04:36:07;;;;;;;14.00;12.50;;;;;;;11.83;82.35;98463.67;104903;1289;22763;-82
2022/05/07 04:38:37;;;;;;;14.30;12.30;;;;;;;11.85;81.89;98463.66;104880;1289;25503;-82
2022/05/07 04:41:07;;;;;;;14.20;11.70;;;;;;;11.87;81.70;98463.81;104826;1289;25335;-81
2022/05/07 04:43:35;;;;;;;16.40;11.50;;;;;;;11.90;81.55;98466.08;104793;1289;22655;-81
2022/05/07 04:46:03;;;;;;;12.30;11.00;;;;;;;11.92;81.40;98466.98;104883;1288;22676;-80
2022/05/07 04:48:33;;;;;;;14.10;12.30;;;;;;;11.94;81.36;98468.02;104915;1289;22744;-81
2022/05/07 04:51:01;;;;;;;16.00;12.80;;;;;;;11.97;81.27;98470.14;104810;1288;25421;-80
2022/05/07 04:54:11;;;;;;;23.80;17.20;;;;;;;12.01;81.18;98474.02;104780;1290;22758;-81
2022/05/07 04:56:41;;;;;;;16.70;13.40;;;;;;;12.03;81.04;98473.39;104793;1291;22644;-81
2022/05/07 04:59:09;;;;;;;16.60;14.20;;;;;;;12.09;80.61;98473.24;104777;1289;22694;-81
2022/05/07 05:01:51;;;;;;;15.20;13.70;;;;;;;12.17;80.70;98475.83;104865;1289;22581;-81
2022/05/07 05:04:20;;;;;;;17.50;15.60;;;;;;;12.26;80.50;98478.54;104854;1289;22689;-80
2022/05/07 05:06:49;;;;;;;16.90;15.20;;;;;;;12.34;80.44;98481.67;104843;1289;22587;-80
2022/05/07 05:09:20;;;;;;;17.50;14.50;;;;;;;12.41;80.19;98483.48;104859;1290;22569;-80
2022/05/07 05:11:59;;;;;;;14.90;13.00;;;;;;;12.47;80.23;98483.00;104853;1289;22570;-81
2022/05/07 05:17:13;;;;;;;20.00;17.80;;;;;;;12.58;79.93;98481.47;104845;1290;22558;-81
2022/05/07 05:19:45;;;;;;;15.50;13.50;;;;;;;12.63;79.61;98483.38;104803;1290;22567;-81
2022/05/07 05:22:17;;;;;;;13.00;11.60;;;;;;;12.69;79.58;98483.75;104884;1290;22683;-82
2022/05/07 05:24:45;;;;;;;14.00;10.80;;;;;;;12.79;79.09;98484.65;104930;1290;22563;-81
2022/05/07 05:27:14;;;;;;;11.70;9.40;;;;;;;12.88;78.58;98489.79;104833;1290;22583;-81
2022/05/07 05:29:47;;;;;;;15.70;9.70;;;;;;;12.99;78.65;98489.86;104853;1291;22570;-79
2022/05/07 05:32:19;;;;;;;14.80;9.70;;;;;;;13.08;78.01;98495.09;104887;1288;22644;-83
2022/05/07 05:34:53;;;;;;;12.20;9.00;;;;;;;13.17;78.16;98494.04;104839;1290;22566;-82
2022/05/07 05:37:30;;;;;;;13.80;8.60;;;;;;;13.26;77.65;98494.99;105168;1291;22569;-81
2022/05/07 05:39:59;;;;;;;11.70;8.70;;;;;;;13.32;77.57;98497.73;105226;1290;24220;-81
2022/05/07 05:42:29;;;;;;;11.40;7.60;;;;;;;13.37;77.38;98502.67;105033;1289;22618;-80
2022/05/07 05:44:57;;;;;;;10.40;7.30;;;;;;;13.42;77.03;98501.22;104837;1289;22585;-81
2022/05/07 05:47:26;;;;;;;12.40;7.30;;;;;;;13.46;76.79;98503.23;104924;1289;22565;-81
2022/05/07 05:49:54;;;;;;;10.30;7.50;;;;;;;13.51;76.62;98503.14;104865;1290;22582;-82
2022/05/07 05:52:27;;;;;;;11.40;8.60;;;;;;;13.55;76.28;98502.89;104843;1290;22563;-82
2022/05/07 05:54:55;;;;;;;14.10;9.10;;;;;;;13.58;76.02;98504.16;104846;1290;25294;-81
2022/05/07 05:57:23;;;;;;;11.70;8.40;;;;;;;13.62;75.80;98504.59;104816;1288;22569;-81
2022/05/07 05:59:51;;;;;;;10.10;7.40;;;;;;;13.65;75.73;98507.86;104810;1290;22569;-82
2022/05/07 06:02:20;;;;;;;15.50;10.00;;;;;;;13.72;75.44;98509.04;104720;1290;22717;-82
2022/05/07 06:04:56;;;;;;;11.00;7.80;;;;;;;13.78;74.99;98514.04;104828;1290;22760;-82
2022/05/07 06:07:26;;;;;;;13.60;8.40;;;;;;;13.84;75.04;98512.73;104844;1289;22596;-81
2022/05/07 06:09:57;;;;;;;10.60;6.80;;;;;;;13.90;74.86;98513.52;104804;1290;22549;-80
2022/05/07 06:12:25;;;;;;;10.20;7.00;;;;;;;13.95;74.28;98512.38;105107;1289;22573;-81
2022/05/07 06:14:54;;;;;;;12.10;7.70;;;;;;;14.00;74.17;98512.64;104832;1289;25401;-82
2022/05/07 06:17:25;;;;;;;9.00;7.40;;;;;;;14.08;73.93;98514.40;105001;1288;22575;-81
2022/05/07 06:19:54;;;;;;;11.30;7.60;;;;;;;14.15;73.75;98515.83;104754;1290;22577;-81
2022/05/07 06:22:23;;;;;;;10.90;8.10;;;;;;;14.21;73.42;98517.48;104880;1290;22569;-82
2022/05/07 06:27:52;;;;;;;11.30;7.10;;;;;;;14.30;72.98;98516.97;104828;1288;22818;-81
2022/05/07 06:30:30;;;;;;;9.70;6.60;;;;;;;14.33;72.60;98518.65;104864;1289;22675;-81
2022/05/07 06:32:59;;;;;;;10.00;6.80;;;;;;;14.37;72.39;98519.95;104788;1289;22648;-82
2022/05/07 06:35:32;;;;;;;11.20;7.10;;;;;;;14.40;72.27;98524.27;104828;1289;22669;-80
2022/05/07 06:38:09;;;;;;;11.10;6.30;;;;;;;14.43;72.08;98523.54;104801;1288;22566;-82
2022/05/07 06:40:38;;;;;;;11.90;7.00;;;;;;;14.47;72.00;98520.02;104855;1290;24418;-82
2022/05/07 06:43:06;;;;;;;10.60;7.30;;;;;;;14.51;71.70;98521.73;104902;1288;24133;-82
2022/05/07 06:45:53;;;;;;;10.20;7.20;;;;;;;14.55;71.46;98522.42;104895;1288;22589;-81
2022/05/07 06:48:22;;;;;;;11.90;7.70;;;;;;;14.58;71.30;98523.98;104843;1288;22568;-82
2022/05/07 06:50:54;;;;;;;12.30;7.80;;;;;;;14.62;71.14;98526.69;104837;1289;25337;-81
2022/05/07 06:53:24;;;;;;;10.40;7.10;;;;;;;14.66;70.96;98527.63;104892;1289;22558;-81
2022/05/07 06:55:54;;;;;;;11.70;6.80;;;;;;;14.72;70.80;98530.67;104864;1288;22582;-82
2022/05/07 06:58:25;;;;;;;12.00;7.70;;;;;;;14.79;70.72;98529.91;104923;1288;22579;-81
2022/05/07 07:01:02;;;;;;;11.20;8.70;;;;;;;14.85;70.59;98531.25;104828;1288;22668;-82
2022/05/07 07:03:31;;;;;;;12.80;7.90;;;;;;;14.90;70.26;98535.20;104831;1288;24236;-81
2022/05/07 07:06:00;;;;;;;11.40;7.80;;;;;;;14.93;70.04;98532.84;104815;1288;23260;-81
2022/05/07 07:08:31;;;;;;;11.50;7.60;;;;;;;14.96;69.81;98536.07;104874;1288;22640;-81
2022/05/07 07:10:59;;;;;;;11.50;7.70;;;;;;;15.00;69.67;98537.73;104899;1288;24472;-82
2022/05/07 07:13:27;;;;;;;12.40;7.20;;;;;;;15.03;69.50;98538.83;104850;1289;22649;-81
2022/05/07 07:15:55;;;;;;;13.10;7.70;;;;;;;15.07;69.43;98539.48;104888;1288;22578;-81
2022/05/07 07:18:23;;;;;;;8.70;7.00;;;;;;;15.12;69.14;98544.67;104878;1288;22630;-81
2022/05/07 07:20:51;;;;;;;9.70;6.60;;;;;;;15.15;69.06;98538.23;104747;1289;22562;-82
2022/05/07 07:23:19;;;;;;;10.80;6.40;;;;;;;15.19;68.93;98540.77;104883;1288;22687;-81
2022/05/07 07:25:47;;;;;;;10.40;6.50;;;;;;;15.22;68.77;98541.39;104853;1288;22586;-81
2022/05/07 07:28:15;;;;;;;9.60;6.10;;;;;;;15.24;68.63;98539.14;104766;1288;24108;-81
2022/05/07 07:30:43;;;;;;;12.30;6.50;;;;;;;15.25;68.37;98543.83;104770;1288;24400;-81
2022/05/07 07:33:16;;;;;;;9.10;6.10;;;;;;;15.27;68.23;98543.71;104813;1288;22557;-82
2022/05/07 07:35:44;;;;;;;12.60;7.00;;;;;;;15.31;68.18;98544.63;104840;1288;25403;-82
2022/05/07 07:38:12;;;;;;;12.30;6.90;;;;;;;15.30;67.97;98544.87;104868;1288;22776;-81
2022/05/07 07:40:41;;;;;;;10.00;5.50;;;;;;;15.26;67.45;98545.30;104848;1288;23281;-81
2022/05/07 07:43:10;;;;;;;11.90;7.60;;;;;;;15.27;67.48;98549.05;104803;1288;22689;-81
2022/05/07 07:48:24;;;;;;;11.50;8.60;;;;;;;15.25;67.11;98552.07;104832;1290;22570;-82
2022/05/07 07:50:53;;;;;;;11.90;7.60;;;;;;;15.23;66.79;98553.10;105200;1288;22885;-81
2022/05/07 07:53:23;;;;;;;9.70;6.80;;;;;;;15.22;66.75;98552.38;104929;1288;22796;-81
2022/05/07 07:55:54;;;;;;;12.10;7.30;;;;;;;15.27;66.97;98553.87;104941;1287;22610;-81
2022/05/07 07:58:22;;;;;;;11.10;6.90;;;;;;;15.33;66.65;98554.25;104818;1288;25370;-81
2022/05/07 08:00:51;;;;;;;12.00;7.10;;;;;;;15.39;66.55;98553.30;104853;1288;22565;-81
2022/05/07 08:03:20;;;;;;;12.20;8.00;;;;;;;15.45;66.19;98555.11;104892;1288;22569;-83
2022/05/07 08:05:51;;;;;;;8.60;6.80;;;;;;;15.44;65.88;98552.74;104886;1288;22629;-81
2022/05/07 08:13:55;;;;;;;8.60;6.90;;;;;;;15.43;65.52;98556.64;104904;1288;22581;-82
2022/05/07 08:16:25;;;;;;;9.90;7.30;;;;;;;15.40;65.15;98556.32;104957;1288;22689;-82
2022/05/07 08:18:53;;;;;;;9.60;7.40;;;;;;;15.41;65.32;98558.37;105322;1288;22888;-82
2022/05/07 08:21:21;;;;;;;10.70;7.10;;;;;;;15.48;65.32;98560.39;105615;1288;25478;-81
2022/05/07 08:23:49;;;;;;;11.50;7.70;;;;;;;15.55;65.18;98557.92;105664;1288;22649;-81
2022/05/07 08:26:18;;;;;;;11.10;7.90;;;;;;;15.62;65.03;98559.59;105657;1288;22578;-78
2022/05/07 08:28:46;;;;;;;8.40;6.90;;;;;;;15.68;64.89;98557.64;105273;1288;22557;-83
2022/05/07 08:31:15;;;;;;;8.00;6.40;;;;;;;15.70;64.70;98562.32;104937;1289;24453;-83
2022/05/07 08:33:43;;;;;;;11.00;6.90;;;;;;;15.68;64.37;98561.84;104928;1288;22693;-83
2022/05/07 08:36:11;;;;;;;13.10;7.70;;;;;;;15.65;64.25;98563.17;104886;1288;22758;-81
2022/05/07 08:38:40;;;;;;;10.40;6.70;;;;;;;15.68;64.50;98566.33;105027;1289;22689;-81
2022/05/07 08:41:12;;;;;;;9.50;6.00;;;;;;;15.72;64.47;98571.43;104837;1288;25392;-81
2022/05/07 08:43:42;;;;;;;10.30;6.50;;;;;;;15.76;64.23;98571.77;104850;1290;22766;-82
2022/05/07 08:46:18;;;;;;;10.40;6.40;;;;;;;15.79;63.91;98571.73;104854;1288;25432;-81
2022/05/07 08:48:51;;;;;;;11.20;6.40;;;;;;;15.80;63.97;98575.86;104869;1288;22586;-82
2022/05/07 08:51:21;;;;;;;9.40;6.90;;;;;;;15.83;63.90;98572.89;104899;1288;22746;-81
2022/05/07 08:53:53;;;;;;;10.50;6.60;;;;;;;15.88;63.88;98575.38;104949;1288;23048;-81
2022/05/07 08:56:24;;;;;;;9.70;6.10;;;;;;;15.92;63.59;98570.48;104832;1288;22594;-81
2022/05/07 08:58:53;;;;;;;10.90;5.80;;;;;;;15.94;63.44;98569.42;104888;1288;22550;-81
2022/05/07 09:01:23;;;;;;;9.00;6.00;;;;;;;15.99;63.41;98571.90;104859;1288;24363;-81
2022/05/07 09:03:51;;;;;;;11.90;6.90;;;;;;;16.05;63.37;98570.85;104838;1288;22717;-81
2022/05/07 09:06:25;;;;;;;10.40;6.70;;;;;;;16.12;63.12;98573.63;104882;1288;22560;-82
2022/05/07 09:08:57;;;;;;;13.00;8.20;;;;;;;16.21;63.02;98574.61;104885;1289;25437;-82
2022/05/07 09:11:26;;;;;;;10.70;7.10;;;;;;;16.27;63.07;98574.03;104819;1289;22875;-82
2022/05/07 09:14:05;;;;;;;15.80;7.30;;;;;;;16.26;62.30;98575.92;104848;1289;23887;-81
2022/05/07 09:16:48;;;;;;;10.50;7.50;;;;;;;16.16;62.21;98577.73;104932;1288;24107;-82
2022/05/07 09:19:28;;;;;;;26.30;20.00;;;;;;;16.10;61.95;98577.33;104911;1288;24333;-81
2022/05/07 09:22:09;;;;;;;27.40;21.60;;;;;;;16.09;61.94;98579.49;104983;1288;25545;-82
2022/05/07 09:24:38;;;;;;;29.00;23.40;;;;;;;16.10;62.09;98580.95;104932;1288;22815;-80
2022/05/07 09:27:07;;;;;;;13.70;10.70;;;;;;;16.17;61.62;98579.79;105803;1288;22496;-81
2022/05/07 09:29:35;;;;;;;17.60;11.50;;;;;;;16.23;61.66;98578.58;106101;1288;22669;-82
2022/05/07 09:32:14;;;;;;;8.50;7.50;;;;;;;16.31;61.76;98579.41;106004;1288;24358;-82
2022/05/07 09:37:42;;;;;;;10.90;7.00;;;;;;;16.41;61.55;98580.34;107278;1288;22675;-81
2022/05/07 09:40:14;;;;;;;12.50;7.10;;;;;;;16.44;61.34;98573.77;105239;1288;22666;-82
2022/05/07 09:42:42;;;;;;;13.50;8.10;;;;;;;16.50;61.32;98572.27;104825;1288;25437;-83
2022/05/07 09:45:11;;;;;;;12.60;10.20;;;;;;;16.55;60.95;98571.40;104897;1289;22667;-83
2022/05/07 09:47:40;;;;;;;11.10;7.50;;;;;;;16.58;60.67;98573.70;104921;1288;22732;-82
2022/05/07 09:50:21;;;;;;;13.20;7.10;;;;;;;16.58;60.64;98575.87;104902;1288;22613;-81
2022/05/07 09:58:23;;;;;;;13.60;7.50;;;;;;;16.65;60.40;98569.57;104833;1290;25422;-82
2022/05/07 10:01:28;;;;;;;8.60;6.80;;;;;;;16.71;60.38;98565.98;104967;1288;22573;-81
2022/05/07 10:04:32;;;;;;;9.80;6.40;;;;;;;16.82;60.28;98562.02;104977;1288;24402;-82
2022/05/07 10:07:21;;;;;;;13.90;8.60;;;;;;;16.89;59.83;98564.57;104944;1288;22884;-82
2022/05/07 10:10:09;;;;;;;10.10;8.00;;;;;;;16.85;59.36;98564.70;104911;1288;22566;-82
2022/05/07 10:12:38;;;;;;;12.90;10.20;;;;;;;16.83;59.49;98562.69;105003;1288;22570;-82
2022/05/07 10:15:09;;;;;;;17.20;13.30;;;;;;;16.87;59.47;98563.75;104987;1288;25479;-81
2022/05/07 10:17:37;;;;;;;13.10;7.30;;;;;;;16.90;59.18;98563.86;104763;1288;404155;-81
2022/05/07 10:20:09;;;;;;;12.00;7.60;;;;;;;16.92;58.13;98560.69;104933;1288;26713;-83
2022/05/07 10:22:39;;;;;;;15.00;10.60;;;;;;;16.93;57.62;98557.19;104993;1288;24242;-82
2022/05/07 10:25:13;;;;;;;10.80;7.70;;;;;;;16.93;56.81;98555.02;104937;1288;24240;-82
2022/05/07 10:27:43;;;;;;;17.40;7.90;;;;;;;16.99;56.73;98557.90;104983;1288;24134;-81
2022/05/07 10:30:19;;;;;;;11.70;7.60;;;;;;;16.95;56.68;98558.62;104980;1289;24240;-82
2022/05/07 10:33:03;;;;;;;9.60;7.70;;;;;;;16.95;55.83;98557.91;105065;1288;22887;-82
2022/05/07 10:35:52;;;;;;;;;;;;;;;16.85;56.07;98557.69;105108;1288;22640;-82
2022/05/07 10:38:32;;;;;;;17.30;7.90;;;;;;;16.84;57.08;98552.54;104863;1288;22583;-82
2022/05/07 10:41:04;;;;;;;11.20;7.10;;;;;;;16.97;57.13;98554.17;105019;1288;24278;-82
2022/05/07 10:43:46;;;;;;;11.80;7.50;;;;;;;17.02;55.87;98552.61;104914;1288;22573;-81
2022/05/07 10:46:24;;;;;;;9.60;6.90;;;;;;;16.91;55.11;98553.98;104943;1288;22628;-82
2022/05/07 10:48:57;;;;;;;9.80;7.00;;;;;;;16.90;55.77;98556.43;105047;1288;25423;-83
2022/05/07 10:51:36;;;;;;;9.30;6.90;;;;;;;16.89;55.67;98552.68;105126;1288;22600;-82
2022/05/07 10:54:22;;;;;;;11.20;8.10;;;;;;;16.90;55.54;98552.17;104955;1288;22581;-81
2022/05/07 10:56:58;;;;;;;9.00;7.00;;;;;;;16.89;55.46;98548.08;104930;1288;23031;-82
2022/05/07 10:59:27;;;;;;;10.00;7.20;;;;;;;16.95;55.79;98545.79;104929;1288;22565;-81
2022/05/07 11:02:06;;;;;;;14.00;8.00;;;;;;;17.07;55.79;98542.31;104983;1288;23991;-82
2022/05/07 11:04:43;;;;;;;10.10;7.20;;;;;;;17.19;55.86;98541.95;104999;1288;22592;-81
2022/05/07 11:07:19;;;;;;;9.90;6.80;;;;;;;17.29;55.64;98539.39;105009;1288;24465;-81
2022/05/07 11:09:51;;;;;;;11.40;8.00;;;;;;;17.35;55.56;98537.85;105306;1288;22550;-82
2022/05/07 11:12:22;;;;;;;11.40;8.80;;;;;;;17.40;55.48;98535.86;104855;1288;24257;-82
2022/05/07 11:14:51;;;;;;;11.90;8.30;;;;;;;17.41;54.90;98536.22;105052;1288;25443;-82
2022/05/07 11:17:30;;;;;;;9.60;8.00;;;;;;;17.39;54.86;98534.34;104980;1288;25384;-81
2022/05/07 11:20:00;;;;;;;11.30;8.50;;;;;;;17.37;54.70;98535.57;104799;1288;23313;-81
2022/05/07 11:22:32;;;;;;;10.00;7.30;;;;;;;17.27;54.03;98536.20;105018;1288;24416;-81
2022/05/07 11:25:03;;;;;;;10.00;6.50;;;;;;;17.23;53.95;98535.55;104789;1291;23774;-81
2022/05/07 11:27:34;;;;;;;12.00;7.10;;;;;;;17.23;53.82;98530.91;104981;1288;23374;-81
2022/05/07 11:30:04;;;;;;;10.90;7.60;;;;;;;17.22;53.01;98532.96;104843;1290;24399;-82
2022/05/07 11:32:41;;;;;;;10.50;8.20;;;;;;;17.16;53.18;98529.92;104923;1288;22641;-82
2022/05/07 11:35:10;;;;;;;10.80;7.50;;;;;;;17.07;53.72;98527.46;104965;1288;22727;-83
2022/05/07 11:37:46;;;;;;;12.60;7.50;;;;;;;17.14;54.14;98522.30;104876;1288;25466;-82
2022/05/07 11:40:25;;;;;;;9.80;7.00;;;;;;;17.29;54.26;98517.44;104926;1288;22675;-82
2022/05/07 11:45:41;;;;;;;10.10;7.40;;;;;;;17.55;53.54;98519.02;104792;1290;22937;-81
2022/05/07 11:48:13;;;;;;;13.00;9.30;;;;;;;17.60;53.51;98519.22;104899;1288;23343;-81
2022/05/07 11:50:54;;;;;;;10.80;9.00;;;;;;;17.54;52.11;98517.11;104898;1288;23979;-82
2022/05/07 11:53:28;;;;;;;11.50;9.10;;;;;;;17.45;52.31;98517.84;104979;1288;24410;-82
2022/05/07 11:56:07;;;;;;;13.50;8.70;;;;;;;17.36;52.36;98516.02;104961;1288;25386;-81
2022/05/07 11:58:40;;;;;;;16.00;8.30;;;;;;;17.21;52.24;98514.98;104931;1288;24301;-81
2022/05/07 12:01:20;;;;;;;10.10;8.40;;;;;;;17.09;52.29;98514.31;104940;1288;22810;-81
2022/05/07 12:03:50;;;;;;;12.60;7.70;;;;;;;17.11;52.77;98515.78;104930;1288;24397;-82
2022/05/07 12:06:30;;;;;;;15.10;9.10;;;;;;;17.15;52.23;98513.02;104855;1287;22874;-82